Time;durP1;ratioP1;P1;durP2;ratioP2;P2;SDS_P1;SDS_P2;PMS_P1;PMS_P2;Temp;Humidity;BMP_temperature;BMP_pressure;BME280_temperature;BME280_humidity;BME280_pressure;Samples;Min_cycle;Max_cycle;Signal;HPM_P1;HPM_P2
2024/02/20 00:01:07;;;;;;;;;41.25;33.50;;;;;9.91;70.85;101776.91;146615;570;46010;-68
2024/02/20 00:04:11;;;;;;;;;44.75;33.75;;;;;8.19;70.45;101473.91;146613;647;46012;-68
2024/02/20 00:07:12;;;;;;;;;46.00;35.00;;;;;9.99;70.60;101792.97;146611;626;46010;-68
2024/02/20 00:10:17;;;;;;;;;45.00;37.25;;;;;10.00;69.98;101784.44;146611;625;46012;-69
2024/02/20 00:13:17;;;;;;;;;48.00;39.50;;;;;9.96;69.77;101764.25;146614;598;45020;-71
2024/02/20 00:16:11;;;;;;;;;46.50;36.50;;;;;10.00;70.50;101778.31;146612;571;46016;-70
2024/02/20 00:19:17;;;;;;;;;49.50;37.75;;;;;9.93;70.86;101777.88;146616;592;46020;-66
2024/02/20 00:22:26;;;;;;;;;66.00;51.75;;;;;9.86;70.71;101774.78;146614;637;46017;-66
2024/02/20 00:25:34;;;;;;;;;37.25;32.75;;;;;9.82;70.35;101772.75;146617;585;46021;-66
2024/02/20 00:28:41;;;;;;;;;22.50;20.75;;;;;9.73;71.43;101765.22;146612;594;47012;-71
2024/02/20 00:31:37;;;;;;;;;25.75;23.50;;;;;9.63;71.43;101771.44;146615;572;46010;-70
2024/02/20 00:34:46;;;;;;;;;22.50;17.75;;;;;9.55;71.28;101774.28;146608;643;46914;-71
2024/02/20 00:38:09;;;;;;;;;26.25;22.50;;;;;9.55;71.41;101771.69;146618;579;46021;-71
2024/02/20 00:41:11;;;;;;;;;25.25;20.75;;;;;9.58;71.80;101777.09;146609;565;46016;-70
2024/02/20 00:44:19;;;;;;;;;26.25;25.25;;;;;9.60;71.01;101778.09;146614;587;46010;-72
2024/02/20 00:47:20;;;;;;;;;25.00;20.50;;;;;9.59;71.26;101779.78;146611;579;46014;-71
2024/02/20 00:50:21;;;;;;;;;23.25;19.75;;;;;9.62;71.15;101782.56;146613;587;46010;-72
2024/02/20 00:53:14;;;;;;;;;27.75;21.00;;;;;9.67;71.15;101778.63;146613;607;46013;-73
2024/02/20 00:56:13;;;;;;;;;23.00;21.00;;;;;9.62;70.81;101746.31;146618;583;46020;-73
2024/02/20 00:59:10;;;;;;;;;24.25;22.25;;;;;9.78;70.76;101773.31;146617;580;46012;-77
2024/02/20 01:02:10;;;;;;;;;25.00;20.25;;;;;9.77;70.63;101768.94;146614;615;46020;-77
2024/02/20 01:05:03;;;;;;;;;22.25;20.75;;;;;9.78;70.78;101768.13;146609;570;46016;-74
2024/02/20 01:08:07;;;;;;;;;26.00;24.00;;;;;9.74;70.86;101753.19;146616;569;45020;-79
2024/02/20 01:11:03;;;;;;;;;28.00;24.50;;;;;9.73;70.94;101753.97;146609;563;47012;-74
2024/02/20 01:14:16;;;;;;;;;26.00;22.00;;;;;9.70;70.76;101750.38;146613;589;46020;-74
2024/02/20 01:17:12;;;;;;;;;30.75;26.00;;;;;9.69;70.92;101746.00;146615;577;46034;-73
2024/02/20 01:20:27;;;;;;;;;24.75;23.25;;;;;9.65;71.22;101737.88;146610;626;46020;-68
2024/02/20 01:23:31;;;;;;;;;21.50;21.25;;;;;9.63;71.40;101737.78;146611;626;46013;-68
2024/02/20 01:26:56;;;;;;;;;26.00;21.50;;;;;9.59;71.97;101725.37;146615;588;46020;-69
2024/02/20 01:29:59;;;;;;;;;25.75;22.50;;;;;9.60;71.79;101719.44;146614;610;46017;-69
2024/02/20 01:33:08;;;;;;;;;21.25;21.25;;;;;9.63;72.48;101721.34;146612;656;46021;-68
2024/02/20 01:36:08;;;;;;;;;22.00;19.00;;;;;9.64;72.99;101711.09;146615;746;45586;-70
2024/02/20 01:39:13;;;;;;;;;20.75;18.75;;;;;9.64;73.45;101697.25;146617;605;46021;-72
2024/02/20 01:42:05;;;;;;;;;18.50;18.50;;;;;9.66;73.77;101701.75;146616;566;46012;-71
2024/02/20 01:45:17;;;;;;;;;19.50;18.00;;;;;9.62;73.54;101678.09;146619;599;46021;-72
2024/02/20 01:48:22;;;;;;;;;21.75;18.25;;;;;9.72;74.98;101672.81;146608;584;46012;-71
2024/02/20 01:51:35;;;;;;;;;21.25;18.50;;;;;9.73;74.78;101666.81;146618;589;46029;-74
2024/02/20 01:54:27;;;;;;;;;17.50;16.50;;;;;9.75;73.54;101678.19;146611;569;47014;-73
2024/02/20 01:57:33;;;;;;;;;28.75;24.00;;;;;9.83;72.32;101692.56;146619;607;46010;-73
2024/02/20 02:00:40;;;;;;;;;29.00;22.75;;;;;9.90;72.92;101689.59;146612;576;46017;-74
2024/02/20 02:03:37;;;;;;;;;32.00;28.75;;;;;9.91;72.53;101686.22;146611;586;46020;-72
2024/02/20 02:06:41;;;;;;;;;30.25;27.50;;;;;9.93;72.18;101675.94;146613;637;47012;-74
2024/02/20 02:09:36;;;;;;;;;22.50;20.25;;;;;9.93;72.18;101689.81;146609;626;46021;-75
2024/02/20 02:12:42;;;;;;;;;23.75;21.00;;;;;9.89;72.00;101689.50;146611;564;46014;-75
2024/02/20 02:15:40;;;;;;;;;22.75;18.00;;;;;9.81;71.79;101690.66;146618;591;47010;-75
2024/02/20 02:18:40;;;;;;;;;25.75;24.25;;;;;9.74;72.20;101684.13;146616;665;45914;-75
2024/02/20 02:21:40;;;;;;;;;25.25;24.50;;;;;9.66;73.16;101685.31;146616;564;46011;-77
2024/02/20 02:24:38;;;;;;;;;25.25;23.75;;;;;9.59;72.81;101678.78;146608;569;46036;-75
2024/02/20 02:27:42;;;;;;;;;26.50;23.50;;;;;9.57;72.71;101676.91;146609;612;48010;-74
2024/02/20 02:30:41;;;;;;;;;25.00;22.50;;;;;7.63;72.49;101341.56;146615;686;46017;-75
2024/02/20 02:33:37;;;;;;;;;24.50;21.75;;;;;9.54;73.52;101679.28;146614;577;46020;-76
2024/02/20 02:36:47;;;;;;;;;30.25;27.25;;;;;9.51;73.00;101681.66;146609;645;47914;-73
2024/02/20 02:39:50;;;;;;;;;28.50;25.50;;;;;9.47;72.82;101670.19;146610;624;48010;-72
2024/02/20 02:42:46;;;;;;;;;25.75;23.25;;;;;9.58;73.15;101678.69;146613;589;46016;-77
2024/02/20 02:45:45;;;;;;;;;24.25;23.25;;;;;9.62;72.82;101681.59;146607;635;47010;-74
2024/02/20 02:48:54;;;;;;;;;25.50;19.50;;;;;9.63;72.55;101679.94;146612;639;46012;-73
2024/02/20 02:51:51;;;;;;;;;22.00;20.25;;;;;9.62;72.36;101681.59;146614;633;46020;-69
2024/02/20 02:54:58;;;;;;;;;24.00;20.50;;;;;9.58;72.30;101676.09;146612;672;46016;-68
2024/02/20 02:57:57;;;;;;;;;23.75;21.00;;;;;9.53;72.01;101674.88;146611;602;47010;-72
2024/02/20 03:00:49;;;;;;;;;24.00;22.75;;;;;9.48;72.21;101671.97;146631;564;46916;-76
2024/02/20 03:03:55;;;;;;;;;24.50;22.00;;;;;9.45;71.93;101672.66;146637;596;45020;-75
2024/02/20 03:06:52;;;;;;;;;25.75;23.50;;;;;9.43;72.06;101674.22;146633;657;45034;-75
2024/02/20 03:09:54;;;;;;;;;21.50;18.00;;;;;9.42;71.91;101676.72;146633;737;46020;-74
2024/02/20 03:12:46;;;;;;;;;24.50;20.50;;;;;7.63;71.96;101398.34;146629;570;46012;-74
2024/02/20 03:15:51;;;;;;;;;26.00;23.00;;;;;9.42;71.71;101668.94;146631;589;46010;-73
2024/02/20 03:18:53;;;;;;;;;21.50;19.75;;;;;9.35;72.19;101671.91;146632;629;45916;-75
2024/02/20 03:21:47;;;;;;;;;24.00;23.25;;;;;9.28;71.94;101669.62;146633;578;46021;-75
2024/02/20 03:24:45;;;;;;;;;28.25;25.50;;;;;9.21;71.96;101674.37;146632;635;45016;-74
2024/02/20 03:27:45;;;;;;;;;383.40;311.20;;;;;9.21;71.92;101678.66;146628;564;46010;-74
2024/02/20 03:30:47;;;;;;;;;49.50;40.75;;;;;9.24;72.36;101682.34;146635;595;45916;-74
2024/02/20 03:33:51;;;;;;;;;26.25;20.00;;;;;9.24;72.80;101677.19;146636;573;45020;-74
2024/02/20 03:36:50;;;;;;;;;21.75;19.25;;;;;9.28;72.53;101680.87;146631;611;47016;-74
2024/02/20 03:39:47;;;;;;;;;24.50;22.25;;;;;9.35;72.53;101677.97;146636;595;45020;-73
2024/02/20 03:42:46;;;;;;;;;26.75;24.50;;;;;9.46;72.61;101678.72;146632;591;45017;-70
2024/02/20 03:45:44;;;;;;;;;19.75;17.50;;;;;9.54;72.74;101674.09;146635;566;45020;-70
2024/02/20 03:48:36;;;;;;;;;25.50;21.25;;;;;9.62;72.71;101671.22;146633;569;45016;-68
2024/02/20 03:51:47;;;;;;;;;21.00;19.75;;;;;9.71;72.30;101670.97;146636;586;45011;-73
2024/02/20 03:54:51;;;;;;;;;19.25;15.25;;;;;9.79;71.66;101677.59;146633;565;45016;-75
2024/02/20 03:57:46;;;;;;;;;21.50;18.75;;;;;9.83;71.81;101669.25;146628;593;46013;-70
2024/02/20 04:00:40;;;;;;;;;24.50;21.50;;;;;9.87;71.64;101665.16;146620;569;46012;-68
2024/02/20 04:03:49;;;;;;;;;22.75;21.50;;;;;9.88;71.25;101667.87;146614;693;46020;-68
2024/02/20 04:06:56;;;;;;;;;;;;;;;;;;;;;
2024/02/20 04:10:02;;;;;;;;;24.75;21.25;;;;;9.89;71.58;101676.53;146614;611;46020;-75
2024/02/20 04:13:00;;;;;;;;;25.25;20.50;;;;;9.88;71.48;101669.56;146615;602;46016;-72
2024/02/20 04:15:59;;;;;;;;;25.25;21.75;;;;;9.86;71.64;101671.16;146614;566;46020;-71
2024/02/20 04:19:04;;;;;;;;;21.00;18.75;;;;;9.84;71.67;101671.03;146609;615;46012;-71
2024/02/20 04:22:08;;;;;;;;;21.00;19.50;;;;;9.84;71.80;101675.31;146619;581;46030;-73
2024/02/20 04:25:03;;;;;;;;;18.50;17.25;;;;;9.86;72.06;101672.03;146615;563;46012;-73
2024/02/20 04:28:20;;;;;;;;;29.75;29.50;;;;;9.78;71.58;101646.41;146612;641;47013;-79
2024/02/20 04:31:38;;;;;;;;;26.50;24.25;;;;;9.90;72.04;101679.22;146609;564;46016;-80
2024/02/20 04:34:34;;;;;;;;;33.50;30.25;;;;;9.90;71.74;101684.41;146613;576;46010;-79
2024/02/20 04:37:32;;;;;;;;;36.25;31.75;;;;;9.92;71.98;101681.94;146614;640;46016;-79
2024/02/20 04:40:26;;;;;;;;;31.50;28.75;;;;;9.89;71.85;101681.72;146617;590;46010;-76
2024/02/20 04:43:26;;;;;;;;;35.50;32.00;;;;;9.85;71.62;101685.81;146616;639;46013;-74
2024/02/20 04:46:53;;;;;;;;;32.25;29.00;;;;;9.85;71.08;101687.50;146613;577;46010;-76
2024/02/20 04:49:59;;;;;;;;;41.50;33.00;;;;;9.90;71.73;101688.69;146616;571;46012;-75
2024/02/20 04:52:57;;;;;;;;;40.25;33.25;;;;;9.91;71.83;101691.41;146614;583;46020;-73
2024/02/20 04:55:49;;;;;;;;;34.25;29.50;;;;;9.93;71.69;101684.63;146614;586;46014;-73
2024/02/20 04:58:45;;;;;;;;;35.75;31.75;;;;;9.94;72.03;101694.22;146614;585;46010;-73
2024/02/20 05:01:43;;;;;;;;;35.75;30.75;;;;;9.95;72.06;101696.00;146616;650;46012;-72
2024/02/20 05:04:51;;;;;;;;;23.50;21.50;;;;;9.98;72.16;101689.25;146614;566;45050;-69
2024/02/20 05:07:56;;;;;;;;;24.75;20.50;;;;;9.95;72.13;101698.59;146615;569;45916;-69
2024/02/20 05:11:00;;;;;;;;;28.50;25.00;;;;;10.00;72.50;101698.00;146613;572;46020;-69
2024/02/20 05:14:04;;;;;;;;;24.50;21.50;;;;;10.03;72.36;101700.81;146610;564;46012;-70
2024/02/20 05:17:12;;;;;;;;;23.00;19.00;;;;;10.04;72.61;101694.84;146612;586;46020;-69
2024/02/20 05:20:25;;;;;;;;;27.75;23.00;;;;;10.05;72.01;101691.44;146616;682;46014;-69
2024/02/20 05:23:24;;;;;;;;;25.75;23.00;;;;;10.07;72.44;101692.47;146614;618;46010;-70
2024/02/20 05:26:23;;;;;;;;;25.50;24.75;;;;;10.06;72.24;101701.94;146608;723;47013;-70
2024/02/20 05:29:15;;;;;;;;;23.25;20.25;;;;;10.08;72.57;101707.22;146612;576;47020;-70
2024/02/20 05:32:19;;;;;;;;;34.50;29.75;;;;;10.09;72.45;101696.97;146612;590;46016;-70
2024/02/20 05:35:16;;;;;;;;;27.25;27.00;;;;;10.10;72.27;101703.94;146613;597;46021;-70
2024/02/20 05:38:16;;;;;;;;;30.50;28.00;;;;;10.10;72.25;101706.53;146617;586;46014;-71
2024/02/20 05:41:23;;;;;;;;;;;;;;;;;;;;;
2024/02/20 05:44:28;;;;;;;;;26.25;24.25;;;;;9.79;71.82;101703.50;146608;630;46012;-69
2024/02/20 05:47:21;;;;;;;;;19.50;16.75;;;;;10.14;72.51;101703.34;146614;580;46020;-70
2024/02/20 05:50:31;;;;;;;;;23.25;18.00;;;;;10.18;72.30;101710.53;146609;564;47916;-69
2024/02/20 05:53:29;;;;;;;;;25.75;23.25;;;;;10.23;72.67;101709.97;146617;596;46010;-68
2024/02/20 05:56:36;;;;;;;;;25.50;23.75;;;;;10.29;72.98;101715.59;146610;578;46017;-68
2024/02/20 05:59:40;;;;;;;;;27.50;23.25;;;;;10.35;73.01;101716.00;146614;585;46020;-68
2024/02/20 06:02:46;;;;;;;;;30.50;26.25;;;;;10.42;73.24;101722.50;146610;575;46017;-67
2024/02/20 06:05:52;;;;;;;;;;;;;;;;;;;;;
2024/02/20 06:09:02;;;;;;;;;35.75;30.50;;;;;10.51;72.81;101725.72;146608;563;46012;-70
2024/02/20 06:11:59;;;;;;;;;32.00;27.00;;;;;10.56;72.74;101720.06;146610;629;46012;-71
2024/02/20 06:15:08;;;;;;;;;44.25;35.75;;;;;10.56;72.79;101727.84;146614;608;46016;-71
2024/02/20 06:18:00;;;;;;;;;49.25;41.00;;;;;10.61;72.38;101734.22;146613;603;46010;-70
2024/02/20 06:21:19;;;;;;;;;51.75;41.50;;;;;10.67;72.26;101738.03;146609;565;46919;-70
2024/02/20 06:24:17;;;;;;;;;50.25;40.75;;;;;10.72;72.18;101747.03;146619;596;46020;-71
2024/02/20 06:27:24;;;;;;;;;52.00;40.25;;;;;10.75;72.54;101742.94;146610;615;46017;-73
2024/02/20 06:30:27;;;;;;;;;51.00;40.50;;;;;10.82;71.55;101741.66;146610;702;47010;-74
2024/02/20 06:33:30;;;;;;;;;48.25;38.25;;;;;10.85;71.96;101737.56;146613;734;46916;-75
2024/02/20 06:36:29;;;;;;;;;45.75;36.00;;;;;10.88;71.68;101734.25;146611;593;47010;-69
2024/02/20 06:39:28;;;;;;;;;48.50;38.50;;;;;10.92;71.86;101746.63;146609;590;46916;-70
2024/02/20 06:42:22;;;;;;;;;51.25;39.75;;;;;10.94;71.45;101747.66;146613;595;46010;-82
2024/02/20 06:45:31;;;;;;;;;47.75;39.00;;;;;10.95;71.65;101748.53;146611;613;46012;-80
2024/02/20 06:48:36;;;;;;;;;51.00;39.75;;;;;9.20;71.48;101438.81;146614;612;46013;-78
2024/02/20 06:51:37;;;;;;;;;50.50;38.75;;;;;10.93;71.70;101743.22;146617;616;46016;-80
2024/02/20 06:54:43;;;;;;;;;;;;;;;;;;;;;
2024/02/20 06:57:46;;;;;;;;;47.50;37.75;;;;;10.95;71.78;101733.88;146612;597;46013;-81
2024/02/20 07:00:43;;;;;;;;;47.50;38.00;;;;;11.07;71.92;101745.06;146617;588;46018;-79
2024/02/20 07:03:45;;;;;;;;;47.00;37.25;;;;;9.32;70.98;101457.75;146611;595;46017;-69
2024/02/20 07:06:50;;;;;;;;;48.25;37.25;;;;;11.14;70.72;101738.56;146612;562;46021;-67
2024/02/20 07:09:55;;;;;;;;;48.50;39.00;;;;;11.17;70.58;101740.47;146610;727;47012;-65
2024/02/20 07:12:59;;;;;;;;;54.25;41.25;;;;;11.17;70.27;101743.94;146614;625;46021;-66
2024/02/20 07:16:01;;;;;;;;;42.75;28.75;;;;;11.22;70.81;101742.56;146610;610;46914;-70
2024/02/20 07:19:08;;;;;;;;;59.25;46.25;;;;;7.11;70.35;101018.00;146611;570;47010;-72
2024/02/20 07:22:11;;;;;;;;;60.00;45.00;;;;;11.43;71.34;101742.13;146607;597;46913;-72
2024/02/20 07:25:23;;;;;;;;;45.75;36.25;;;;;7.93;69.97;101112.19;146612;573;47010;-74
2024/02/20 07:28:18;;;;;;;;;54.75;43.50;;;;;11.65;70.83;101755.69;146612;663;46012;-73
2024/02/20 07:31:25;;;;;;;;;49.75;38.75;;;;;11.77;70.49;101755.53;146612;672;46020;-70
2024/02/20 07:34:21;;;;;;;;;54.50;44.00;;;;;11.87;70.04;101752.78;146611;565;46017;-66
2024/02/20 07:37:28;;;;;;;;;63.25;47.50;;;;;11.98;69.57;101749.13;146615;598;46020;-68
2024/02/20 07:40:29;;;;;;;;;62.50;49.75;;;;;12.10;69.06;101753.28;146610;629;46029;-70
2024/02/20 07:43:33;;;;;;;;;54.25;42.75;;;;;12.19;68.46;101767.75;146608;657;46010;-69
2024/02/20 07:46:42;;;;;;;;;57.25;44.75;;;;;10.54;68.08;101457.13;146611;569;46016;-67
2024/02/20 07:49:47;;;;;;;;;52.25;41.25;;;;;12.37;68.21;101751.50;146612;605;46010;-69
2024/02/20 07:52:46;;;;;;;;;49.50;41.25;;;;;12.47;68.01;101753.81;146610;581;46016;-68
2024/02/20 07:55:49;;;;;;;;;57.50;44.25;;;;;12.56;67.41;101754.38;146612;580;46020;-73
2024/02/20 07:58:48;;;;;;;;;57.00;44.75;;;;;12.66;67.35;101755.81;146607;593;47012;-71
2024/02/20 08:01:46;;;;;;;;;54.75;43.00;;;;;12.78;67.36;101758.25;146611;594;46020;-71
2024/02/20 08:04:49;;;;;;;;;55.00;42.75;;;;;11.22;66.94;101464.78;146609;691;46012;-70
2024/02/20 08:07:42;;;;;;;;;56.50;44.25;;;;;12.97;67.07;101757.62;146614;645;46010;-70
2024/02/20 08:10:44;;;;;;;;;51.25;40.75;;;;;9.20;66.53;101103.31;146610;611;47016;-71
2024/02/20 08:13:39;;;;;;;;;50.50;38.00;;;;;13.17;66.79;101752.72;146614;571;46010;-70
2024/02/20 08:16:40;;;;;;;;;46.75;38.50;;;;;13.24;66.70;101755.66;146611;580;46016;-72
2024/02/20 08:19:45;;;;;;;;;51.50;38.50;;;;;13.26;65.96;101761.91;146614;565;46020;-71
2024/02/20 08:22:48;;;;;;;;;51.25;39.75;;;;;13.27;66.19;101767.22;146610;602;46016;-70
2024/02/20 08:25:58;;;;;;;;;;;;;;;;;;;;;
2024/02/20 08:29:01;;;;;;;;;69.50;51.25;;;;;13.27;65.90;101768.91;146609;596;47012;-69
2024/02/20 08:31:56;;;;;;;;;55.75;44.75;;;;;13.26;66.04;101765.41;146618;645;46010;-70
2024/02/20 08:34:53;;;;;;;;;51.00;40.50;;;;;13.29;66.22;101768.19;146609;606;47012;-70
2024/02/20 08:37:59;;;;;;;;;50.50;39.50;;;;;13.38;65.98;101767.81;146613;583;47020;-71
2024/02/20 08:40:55;;;;;;;;;49.50;40.75;;;;;13.43;65.50;101787.22;146609;576;46014;-70
2024/02/20 08:43:52;;;;;;;;;44.25;37.25;;;;;13.57;64.99;101768.03;146613;573;46020;-71
2024/02/20 08:46:56;;;;;;;;;44.75;36.00;;;;;13.71;64.66;101776.63;146610;591;46914;-72
2024/02/20 08:49:56;;;;;;;;;36.50;31.00;;;;;13.79;63.72;101780.53;146614;579;46012;-71
2024/02/20 08:53:01;;;;;;;;;;;;;;;;;;;;;
2024/02/20 08:56:14;;;;;;;;;35.75;29.50;;;;;13.94;64.25;101775.28;146611;613;46020;-71
2024/02/20 08:59:25;;;;;;;;;29.75;26.75;;;;;14.03;63.33;101780.09;146611;573;46022;-70
2024/02/20 09:02:28;;;;;;;;;30.50;28.00;;;;;14.07;63.16;101779.44;146614;653;46010;-70
2024/02/20 09:05:29;;;;;;;;;36.75;31.25;;;;;14.05;62.26;101781.09;146612;586;46016;-71
2024/02/20 09:08:28;;;;;;;;;38.00;32.50;;;;;14.02;63.85;101776.59;146614;596;46020;-70
2024/02/20 09:11:23;;;;;;;;;37.75;32.25;;;;;14.06;64.34;101780.25;146607;621;47012;-70
2024/02/20 09:14:19;;;;;;;;;38.00;31.00;;;;;14.13;63.43;101784.97;146614;593;46020;-71
2024/02/20 09:17:22;;;;;;;;;35.75;27.25;;;;;14.19;63.27;101782.69;146613;581;47017;-68
2024/02/20 09:20:22;;;;;;;;;32.75;25.25;;;;;14.26;63.75;101781.31;146614;602;47010;-67
2024/02/20 09:23:20;;;;;;;;;26.50;24.25;;;;;14.33;63.09;101779.13;146609;588;46016;-72
2024/02/20 09:26:21;;;;;;;;;18.25;14.00;;;;;14.39;61.53;101782.84;146611;611;47010;-72
2024/02/20 09:29:28;;;;;;;;;27.75;25.25;;;;;14.31;61.63;101790.28;146613;575;47016;-73
2024/02/20 09:32:29;;;;;;;;;19.75;17.00;;;;;14.21;62.00;101781.09;146610;584;46012;-72
2024/02/20 09:35:28;;;;;;;;;22.75;18.75;;;;;14.13;62.65;101774.53;146613;585;46012;-73
2024/02/20 09:38:33;;;;;;;;;15.25;14.75;;;;;14.08;62.73;101774.31;146618;648;47020;-73
2024/02/20 09:41:35;;;;;;;;;13.50;12.00;;;;;14.04;62.79;101776.66;146618;582;46014;-73
2024/02/20 09:44:30;;;;;;;;;20.50;18.00;;;;;14.01;62.82;101779.09;146617;569;46010;-72
2024/02/20 09:47:28;;;;;;;;;18.50;17.00;;;;;13.98;63.10;101779.81;146614;657;46016;-72
2024/02/20 09:50:28;;;;;;;;;20.00;17.50;;;;;13.93;62.91;101773.50;146614;599;46010;-72
2024/02/20 09:53:24;;;;;;;;;17.00;14.25;;;;;13.91;62.88;101764.69;146613;665;46912;-72
2024/02/20 09:56:31;;;;;;;;;17.50;13.75;;;;;13.91;62.70;101769.88;146617;608;46010;-72
2024/02/20 09:59:24;;;;;;;;;16.50;15.25;;;;;13.91;62.93;101774.22;146615;569;46016;-73
2024/02/20 10:02:37;;;;;;;;;18.75;16.25;;;;;13.90;63.61;101767.22;146615;572;46021;-73
2024/02/20 10:05:36;;;;;;;;;17.50;14.75;;;;;13.94;62.53;101771.78;146613;585;47014;-73
2024/02/20 10:08:34;;;;;;;;;16.00;14.50;;;;;13.98;62.91;101756.34;146616;564;47010;-73
2024/02/20 10:11:40;;;;;;;;;14.75;14.75;;;;;14.06;62.26;101759.41;146610;573;47012;-72
2024/02/20 10:14:37;;;;;;;;;17.50;16.50;;;;;14.19;63.71;101756.63;146617;709;46010;-72
2024/02/20 10:17:36;;;;;;;;;14.25;12.75;;;;;14.39;62.97;101751.53;146611;584;47040;-72
2024/02/20 10:20:30;;;;;;;;;13.25;12.00;;;;;14.53;60.55;101740.16;146617;605;46020;-73
2024/02/20 10:23:23;;;;;;;;;15.25;13.50;;;;;14.65;59.15;101742.50;146611;622;47012;-72
2024/02/20 10:26:19;;;;;;;;;18.25;13.25;;;;;14.75;58.94;101740.41;146616;563;46021;-72
2024/02/20 10:29:15;;;;;;;;;19.75;18.25;;;;;14.83;59.33;101732.06;146612;609;46016;-71
2024/02/20 10:32:37;;;;;;;;;14.75;12.50;;;;;14.92;59.01;101733.44;146615;619;47012;-73
2024/02/20 10:35:40;;;;;;;;;15.00;12.25;;;;;15.00;57.62;101729.47;146614;570;46016;-73
2024/02/20 10:38:38;;;;;;;;;17.25;13.25;;;;;15.04;57.46;101721.78;146613;596;47010;-72
2024/02/20 10:41:36;;;;;;;;;15.00;12.00;;;;;15.14;56.96;101719.72;146610;611;46014;-73
2024/02/20 10:44:28;;;;;;;;;16.75;15.50;;;;;15.22;55.26;101715.75;146611;606;48010;-73
2024/02/20 10:47:50;;;;;;;;;23.00;17.50;;;;;11.68;56.78;101103.84;146613;563;46034;-73
2024/02/20 10:50:56;;;;;;;;;23.50;18.50;;;;;15.38;56.57;101713.88;146612;611;47020;-73
2024/02/20 10:53:58;;;;;;;;;21.25;18.25;;;;;13.85;56.29;101408.06;146613;589;46017;-72
2024/02/20 10:57:00;;;;;;;;;20.00;17.75;;;;;15.84;58.03;101695.13;146614;577;47020;-73
2024/02/20 10:59:56;;;;;;;;;20.50;18.75;;;;;16.22;55.61;101699.44;146611;569;47012;-73
2024/02/20 11:02:51;;;;;;;;;21.25;20.75;;;;;16.60;51.92;101681.84;146615;590;46032;-74
2024/02/20 11:05:44;;;;;;;;;19.25;17.00;;;;;16.88;53.23;101673.44;146614;643;46016;-73
2024/02/20 11:08:45;;;;;;;;;17.75;16.00;;;;;17.17;51.89;101671.13;146618;579;46010;-73
2024/02/20 11:12:14;;;;;;;;;18.50;16.25;;;;;17.39;53.18;101665.88;146614;618;47014;-73
2024/02/20 11:15:23;;;;;;;;;19.00;17.00;;;;;14.19;53.35;101073.25;146617;585;46020;-71
2024/02/20 11:18:27;;;;;;;;;23.00;22.00;;;;;17.59;48.70;101655.22;146611;580;46016;-72
2024/02/20 11:21:36;;;;;;;;;18.50;17.75;;;;;17.43;51.84;101656.38;146612;616;47010;-73
2024/02/20 11:25:22;;;;;;;;;22.25;20.00;;;;;13.40;51.30;101014.25;146611;573;46017;-72
2024/02/20 11:28:49;;;;;;;;;24.00;21.75;;;;;16.72;53.75;101658.78;146611;629;47010;-72
2024/02/20 11:31:45;;;;;;;;;20.00;19.00;;;;;16.53;49.49;101653.63;146609;578;47013;-74
2024/02/20 11:34:44;;;;;;;;;18.75;17.50;;;;;16.32;52.36;101645.75;146617;565;46020;-71
2024/02/20 11:37:37;;;;;;;;;19.00;16.50;;;;;16.26;53.31;101645.50;146612;606;46024;-75
2024/02/20 11:40:35;;;;;;;;;18.75;17.00;;;;;16.20;52.36;101646.16;146615;563;46020;-72
2024/02/20 11:43:34;;;;;;;;;20.25;16.75;;;;;16.14;53.71;101636.31;146615;663;46015;-71
2024/02/20 11:46:27;;;;;;;;;19.00;15.25;;;;;16.06;52.61;101631.56;146613;566;47010;-71
2024/02/20 11:49:30;;;;;;;;;19.75;18.25;;;;;15.96;53.22;101632.00;146614;573;46012;-72
2024/02/20 11:52:32;;;;;;;;;23.75;20.75;;;;;15.84;53.30;101622.78;146619;626;46010;-72
2024/02/20 11:55:28;;;;;;;;;31.25;26.00;;;;;15.86;53.46;101623.75;146608;587;47012;-71
2024/02/20 11:58:31;;;;;;;;;24.75;21.50;;;;;15.85;54.14;101619.31;146616;613;46012;-73
2024/02/20 12:01:29;;;;;;;;;26.25;23.75;;;;;15.81;53.42;101614.81;146611;665;46017;-74
2024/02/20 12:04:41;;;;;;;;;29.00;26.25;;;;;15.72;53.70;101616.13;146613;591;46020;-72
2024/02/20 12:07:34;;;;;;;;;32.00;28.00;;;;;15.62;53.66;101615.66;146610;667;47016;-74
2024/02/20 12:10:35;;;;;;;;;23.00;22.00;;;;;15.50;54.29;101611.62;146616;565;46020;-72
2024/02/20 12:13:39;;;;;;;;;34.25;28.50;;;;;15.38;56.00;101611.94;146613;666;45912;-73
2024/02/20 12:16:40;;;;;;;;;27.25;26.00;;;;;15.30;56.85;101603.75;146612;759;46024;-72
2024/02/20 12:19:34;;;;;;;;;26.25;24.75;;;;;15.26;57.41;101601.81;146609;647;46016;-72
2024/02/20 12:22:49;;;;;;;;;27.50;24.00;;;;;11.82;57.94;100995.41;146616;594;46010;-72
2024/02/20 12:25:45;;;;;;;;;27.50;23.25;;;;;15.15;57.28;101590.88;146614;596;46016;-71
2024/02/20 12:28:45;;;;;;;;;23.00;23.00;;;;;15.09;57.88;101592.31;146611;565;47010;-72
2024/02/20 12:31:55;;;;;;;;;24.75;21.50;;;;;15.07;58.00;101597.44;146614;595;46016;-73
2024/02/20 12:35:00;;;;;;;;;26.00;23.25;;;;;15.16;58.66;101582.22;146618;594;47010;-73
2024/02/20 12:37:56;;;;;;;;;19.50;16.75;;;;;15.30;57.87;101584.59;146611;576;47017;-73
2024/02/20 12:40:51;;;;;;;;;22.00;17.75;;;;;15.46;55.83;101584.44;146617;706;46020;-72
2024/02/20 12:43:58;;;;;;;;;20.25;18.00;;;;;15.52;55.66;101589.94;146613;581;47016;-74
2024/02/20 12:47:10;;;;;;;;;19.00;17.25;;;;;15.61;56.71;101574.69;146612;571;47012;-71
2024/02/20 12:50:09;;;;;;;;;18.50;15.50;;;;;15.65;55.19;101555.69;146611;579;46916;-71
2024/02/20 12:53:21;;;;;;;;;17.25;14.25;;;;;12.22;53.99;100938.53;146620;583;46010;-72
2024/02/20 12:56:19;;;;;;;;;22.00;18.00;;;;;15.83;53.59;101580.88;146616;598;46012;-72
2024/02/20 12:59:20;;;;;;;;;20.25;18.25;;;;;14.16;53.50;101305.22;146619;625;46030;-73
2024/02/20 13:02:42;;;;;;;;;15.50;15.50;;;;;12.42;56.45;101006.19;146615;579;46012;-73
2024/02/20 13:05:36;;;;;;;;;13.75;11.00;;;;;14.09;54.74;101300.56;146614;627;47010;-73
2024/02/20 13:08:35;;;;;;;;;12.25;10.25;;;;;15.79;53.49;101568.47;146611;591;46917;-72
2024/02/20 13:11:30;;;;;;;;;12.75;12.75;;;;;15.85;52.79;101569.63;146615;587;47010;-70
2024/02/20 13:14:28;;;;;;;;;13.00;11.00;;;;;15.84;53.33;101567.84;146611;576;47014;-71
2024/02/20 13:17:25;;;;;;;;;10.25;8.75;;;;;15.82;52.24;101564.28;146617;573;47020;-72
2024/02/20 13:20:51;;;;;;;;;12.25;8.25;;;;;15.84;53.48;101561.75;146618;666;46012;-70
2024/02/20 13:23:43;;;;;;;;;8.00;8.00;;;;;15.86;51.36;101560.09;146620;727;46020;-72
2024/02/20 13:26:53;;;;;;;;;8.00;8.00;;;;;15.82;50.95;101558.16;146618;609;47012;-70
2024/02/20 13:29:55;;;;;;;;;6.75;6.00;;;;;15.78;51.76;101554.53;146618;611;47010;-72
2024/02/20 13:32:54;;;;;;;;;11.00;8.00;;;;;15.89;51.73;101555.00;146616;599;46016;-72
2024/02/20 13:36:06;;;;;;;;;10.00;8.00;;;;;14.12;51.16;101218.97;146613;674;47010;-73
2024/02/20 13:39:06;;;;;;;;;23.00;21.00;;;;;14.58;49.98;101289.78;146616;563;46012;-72
2024/02/20 13:42:17;;;;;;;;;17.75;16.25;;;;;16.16;50.81;101563.09;146614;580;47045;-71
2024/02/20 13:45:17;;;;;;;;;9.75;9.75;;;;;16.08;49.45;101567.12;146611;573;46022;-73
2024/02/20 13:48:22;;;;;;;;;9.00;8.00;;;;;15.89;49.29;101568.97;146623;695;45020;-73
2024/02/20 13:51:20;;;;;;;;;6.50;6.00;;;;;15.60;50.66;101569.37;146610;576;46016;-74
2024/02/20 13:54:40;;;;;;;;;8.00;7.00;;;;;15.17;51.23;101565.72;146621;651;47010;-74
2024/02/20 13:57:52;;;;;;;;;8.50;6.75;;;;;14.81;51.77;101566.63;146619;601;46017;-74
2024/02/20 14:00:50;;;;;;;;;10.25;7.00;;;;;14.58;52.10;101569.03;146618;577;47010;-71
2024/02/20 14:03:56;;;;;;;;;10.00;10.00;;;;;14.43;54.12;101576.06;146616;589;46912;-74